createdAt,value
2023-07-24T00:02:03.577Z,65.26
2023-07-24T00:04:33.373Z,65.21
2023-07-24T00:07:02.224Z,64.59
2023-07-24T00:09:29.794Z,65.22
2023-07-24T00:11:57.349Z,64.85
2023-07-24T00:14:24.951Z,64.72
2023-07-24T00:16:52.546Z,63.87
2023-07-24T00:19:20.365Z,63.68
2023-07-24T00:21:49.234Z,63.99
2023-07-24T00:24:16.819Z,64.67
2023-07-24T00:26:44.454Z,64.55
2023-07-24T00:29:11.954Z,64.33
2023-07-24T00:31:39.432Z,64.89
2023-07-24T00:34:06.978Z,64.84
2023-07-24T00:36:34.484Z,65.44
2023-07-24T00:39:03.340Z,65.52
2023-07-24T00:41:30.823Z,65.59
2023-07-24T00:43:58.396Z,65.53
2023-07-24T00:46:26.567Z,65.83
2023-07-24T00:48:55.154Z,65.97
2023-07-24T00:51:22.798Z,65.87
2023-07-24T00:53:50.330Z,65.81
2023-07-24T00:56:19.242Z,66.12
2023-07-24T00:58:46.864Z,66.48
2023-07-24T01:01:14.457Z,65.85
2023-07-24T01:03:42.052Z,65.95
2023-07-24T01:06:09.587Z,66.58
2023-07-24T01:08:37.224Z,66.54
2023-07-24T01:11:11.847Z,66.83
2023-07-24T01:13:46.340Z,66.69
2023-07-24T01:16:16.642Z,66.77
2023-07-24T01:18:46.864Z,67.06
2023-07-24T01:21:18.712Z,67.37
2023-07-24T01:23:53.854Z,67.19
2023-07-24T01:26:24.866Z,67.28
2023-07-24T01:28:52.363Z,67.41
2023-07-24T01:31:19.934Z,67.32
2023-07-24T01:33:47.712Z,67.15
2023-07-24T01:36:16.290Z,67.52
2023-07-24T01:38:44.264Z,66.86
2023-07-24T01:41:12.131Z,67.44
2023-07-24T01:43:40.963Z,67.61
2023-07-24T01:46:09.623Z,67.69
2023-07-24T01:48:37.209Z,68.08
2023-07-24T01:51:05.154Z,67.87
2023-07-24T01:53:32.654Z,68.20
2023-07-24T01:56:00.322Z,68.52
2023-07-24T01:58:27.816Z,68.28
2023-07-24T02:00:58.274Z,68.26
2023-07-24T02:03:25.863Z,68.31
2023-07-24T02:05:53.620Z,68.74
2023-07-24T02:08:21.279Z,68.89
2023-07-24T02:10:50.648Z,68.69
2023-07-24T02:13:18.170Z,68.61
2023-07-24T02:15:45.662Z,68.04
2023-07-24T02:18:14.515Z,68.21
2023-07-24T02:20:42.002Z,68.02
2023-07-24T02:23:11.072Z,68.27
2023-07-24T02:25:38.568Z,68.60
2023-07-24T02:28:06.080Z,68.83
2023-07-24T02:30:33.557Z,68.92
2023-07-24T02:33:01.166Z,69.65
2023-07-24T02:35:30.034Z,70.18
2023-07-24T02:37:57.556Z,70.04
2023-07-24T02:40:25.047Z,70.51
2023-07-24T02:42:52.558Z,70.83
2023-07-24T02:45:20.275Z,70.22
2023-07-24T02:47:47.817Z,70.28
2023-07-24T02:50:15.482Z,70.03
2023-07-24T02:52:44.350Z,70.76
2023-07-24T02:55:11.944Z,71.23
2023-07-24T02:57:39.458Z,70.67
2023-07-24T03:00:09.557Z,70.46
2023-07-24T03:02:37.264Z,70.08
2023-07-24T03:05:05.304Z,70.55
2023-07-24T03:07:33.446Z,70.78
2023-07-24T03:10:02.329Z,71.56
2023-07-24T03:12:29.860Z,71.15
2023-07-24T03:14:57.359Z,70.50
2023-07-24T03:17:25.135Z,70.71
2023-07-24T03:19:52.683Z,70.86
2023-07-24T03:22:20.176Z,69.47
2023-07-24T03:24:47.803Z,69.16
2023-07-24T03:27:16.699Z,69.27
2023-07-24T03:29:44.224Z,69.49
2023-07-24T03:32:11.736Z,69.79
2023-07-24T03:34:40.214Z,69.59
2023-07-24T03:37:07.701Z,69.50
2023-07-24T03:39:35.250Z,69.22
2023-07-24T03:42:04.039Z,69.21
2023-07-24T03:44:32.983Z,69.22
2023-07-24T03:47:00.639Z,68.92
2023-07-24T03:49:28.244Z,69.24
2023-07-24T03:51:55.745Z,69.92
2023-07-24T03:54:23.268Z,69.64
2023-07-24T03:56:50.742Z,70.02
2023-07-24T03:59:18.590Z,70.10
2023-07-24T04:01:47.509Z,69.78
2023-07-24T04:04:15.061Z,69.52
2023-07-24T04:06:42.576Z,70.05
2023-07-24T04:09:11.870Z,69.84
2023-07-24T04:11:40.423Z,69.96
2023-07-24T04:14:07.903Z,70.05
2023-07-24T04:16:35.780Z,70.16
2023-07-24T04:19:05.453Z,69.97
2023-07-24T04:21:33.143Z,70.10
2023-07-24T04:24:00.680Z,69.85
2023-07-24T04:26:28.581Z,70.43
2023-07-24T04:28:56.300Z,70.44
2023-07-24T04:31:23.883Z,70.70
2023-07-24T04:33:51.472Z,70.90
2023-07-24T04:36:20.341Z,71.06
2023-07-24T04:38:48.366Z,70.97
2023-07-24T04:41:15.919Z,70.54
2023-07-24T04:43:43.589Z,71.09
2023-07-24T04:46:11.185Z,70.74
2023-07-24T04:48:38.767Z,70.68
2023-07-24T04:51:06.260Z,70.56
2023-07-24T04:53:35.090Z,69.86
2023-07-24T04:56:02.668Z,69.80
2023-07-24T04:58:30.251Z,70.52
2023-07-24T05:00:57.762Z,68.85
2023-07-24T05:03:33.597Z,69.45
2023-07-24T05:06:01.171Z,68.90
2023-07-24T05:08:28.749Z,69.24
2023-07-24T05:10:58.354Z,69.39
2023-07-24T05:13:25.891Z,69.60
2023-07-24T05:15:53.531Z,68.93
2023-07-24T05:18:21.209Z,68.69
2023-07-24T05:20:52.156Z,68.98
2023-07-24T05:23:19.736Z,69.20
2023-07-24T05:25:47.311Z,68.91
2023-07-24T05:28:16.159Z,68.87
2023-07-24T05:30:43.708Z,69.15
2023-07-24T05:33:11.251Z,68.77
2023-07-24T05:35:38.758Z,68.66
2023-07-24T05:38:06.258Z,68.93
2023-07-24T05:40:33.829Z,69.16
2023-07-24T05:43:01.389Z,68.47
2023-07-24T05:45:30.216Z,68.52
2023-07-24T05:47:57.769Z,68.26
2023-07-24T05:50:25.324Z,68.66
2023-07-24T05:52:52.839Z,68.80
2023-07-24T05:55:20.323Z,67.47
2023-07-24T05:57:47.841Z,66.92
2023-07-24T06:00:15.776Z,67.01
2023-07-24T06:02:44.731Z,67.32
2023-07-24T06:05:12.420Z,67.27
2023-07-24T06:07:39.960Z,68.25
2023-07-24T06:10:08.543Z,68.11
2023-07-24T06:12:36.157Z,68.26
2023-07-24T06:15:04.363Z,67.00
2023-07-24T06:17:31.949Z,67.41
2023-07-24T06:20:01.086Z,67.09
2023-07-24T06:22:28.654Z,67.54
2023-07-24T06:24:56.178Z,67.10
2023-07-24T06:27:23.743Z,65.50
2023-07-24T06:29:53.366Z,66.88
2023-07-24T06:32:23.356Z,65.57
2023-07-24T06:34:50.921Z,66.85
2023-07-24T06:37:23.159Z,66.19
2023-07-24T06:39:50.981Z,66.98
2023-07-24T06:42:18.490Z,66.30
2023-07-24T06:44:46.021Z,65.22
2023-07-24T06:47:13.513Z,65.05
2023-07-24T06:49:41.083Z,64.76
2023-07-24T06:52:08.955Z,63.75
2023-07-24T06:54:37.842Z,63.64
2023-07-24T06:57:05.724Z,63.37
2023-07-24T06:59:33.282Z,63.04
2023-07-24T07:02:00.873Z,62.50
2023-07-24T07:04:28.393Z,61.61
2023-07-24T07:06:56.192Z,60.68
2023-07-24T07:09:23.693Z,60.37
2023-07-24T07:11:52.574Z,59.33
2023-07-24T07:14:20.079Z,58.84
2023-07-24T07:16:48.664Z,57.92
2023-07-24T07:19:16.265Z,57.72
2023-07-24T07:21:43.787Z,58.07
2023-07-24T07:24:11.294Z,57.04
2023-07-24T07:26:38.839Z,57.00
2023-07-24T07:29:07.703Z,55.82
2023-07-24T07:31:35.292Z,55.75
2023-07-24T07:34:02.816Z,55.88
2023-07-24T07:36:30.682Z,55.55
2023-07-24T07:38:58.382Z,55.58
2023-07-24T07:41:25.939Z,55.41
2023-07-24T07:43:53.448Z,55.65
2023-07-24T07:46:22.348Z,55.72
2023-07-24T07:48:50.289Z,55.79
2023-07-24T07:51:17.894Z,55.58
2023-07-24T07:53:45.444Z,55.86
2023-07-24T07:56:12.986Z,55.66
2023-07-24T07:58:40.508Z,54.79
2023-07-24T08:01:08.565Z,56.24
2023-07-24T08:03:37.763Z,56.33
2023-07-24T08:06:05.304Z,55.11
2023-07-24T08:08:32.931Z,54.38
2023-07-24T08:11:00.428Z,56.44
2023-07-24T08:13:27.957Z,55.88
2023-07-24T08:15:55.475Z,55.59
2023-07-24T08:18:23.066Z,55.49
2023-07-24T08:20:51.892Z,55.50
2023-07-24T08:23:19.404Z,55.08
2023-07-24T08:25:53.546Z,55.74
2023-07-24T08:28:21.199Z,55.14
2023-07-24T08:30:57.619Z,54.84
2023-07-24T08:33:25.258Z,54.79
2023-07-24T08:36:02.661Z,54.64
2023-07-24T08:38:30.310Z,54.27
2023-07-24T08:41:05.885Z,54.09
2023-07-24T08:43:34.054Z,55.01
2023-07-24T08:46:02.863Z,54.85
2023-07-24T08:48:34.294Z,54.39
2023-07-24T08:51:03.949Z,52.97
2023-07-24T08:53:32.285Z,53.36
2023-07-24T08:56:02.701Z,53.56
2023-07-24T08:58:30.359Z,54.16
2023-07-24T09:00:59.104Z,52.54
2023-07-24T09:03:27.228Z,52.31
2023-07-24T09:05:54.947Z,52.37
2023-07-24T09:08:32.364Z,52.39
2023-07-24T09:11:00.188Z,51.67
2023-07-24T09:13:27.868Z,51.54
2023-07-24T09:15:55.985Z,52.24
2023-07-24T09:18:23.836Z,51.12
2023-07-24T09:20:53.048Z,51.13
2023-07-24T09:23:28.801Z,52.41
2023-07-24T09:25:57.774Z,50.85
2023-07-24T09:28:25.359Z,51.19
2023-07-24T09:30:54.944Z,51.31
2023-07-24T09:33:22.884Z,51.13
2023-07-24T09:35:59.987Z,53.45
2023-07-24T09:38:27.556Z,53.05
2023-07-24T09:40:57.911Z,52.72
2023-07-24T09:43:39.048Z,53.07
2023-07-24T09:46:08.904Z,53.30
2023-07-24T09:48:43.630Z,52.87
2023-07-24T09:51:27.235Z,51.37
2023-07-24T09:53:58.359Z,51.62
2023-07-24T09:56:38.956Z,51.59
2023-07-24T09:59:15.625Z,51.56
2023-07-24T10:01:44.146Z,50.72
2023-07-24T10:04:12.272Z,49.64
2023-07-24T10:06:40.065Z,49.92
2023-07-24T10:09:09.130Z,49.93
2023-07-24T10:11:38.014Z,49.44
2023-07-24T10:14:06.028Z,50.04
2023-07-24T10:16:34.728Z,48.32
2023-07-24T10:19:02.303Z,48.74
2023-07-24T10:21:30.415Z,48.08
2023-07-24T10:24:01.931Z,48.76
2023-07-24T10:26:29.537Z,48.87
2023-07-24T10:28:59.053Z,48.70
2023-07-24T10:31:28.982Z,46.66
2023-07-24T10:33:58.091Z,46.52
2023-07-24T10:36:25.641Z,45.59
2023-07-24T10:38:55.254Z,46.90
2023-07-24T10:41:23.086Z,46.69
2023-07-24T10:43:52.088Z,45.94
2023-07-24T10:46:22.701Z,44.69
2023-07-24T10:48:52.895Z,45.57
2023-07-24T10:51:20.529Z,46.14
2023-07-24T10:53:50.141Z,45.95
2023-07-24T10:56:18.838Z,45.71
2023-07-24T10:58:46.382Z,45.58
2023-07-24T11:01:15.242Z,46.16
2023-07-24T11:03:44.602Z,46.63
2023-07-24T11:06:15.957Z,47.23
2023-07-24T11:08:44.040Z,47.60
2023-07-24T11:11:13.190Z,47.45
2023-07-24T11:13:40.711Z,47.78
2023-07-24T11:16:09.920Z,47.95
2023-07-24T11:18:54.016Z,48.27
2023-07-24T11:21:22.524Z,48.39
2023-07-24T11:23:51.248Z,47.93
2023-07-24T11:26:21.185Z,48.58
2023-07-24T11:28:48.740Z,48.47
2023-07-24T11:31:17.025Z,48.54
2023-07-24T11:33:46.707Z,48.46
2023-07-24T11:36:14.759Z,48.36
2023-07-24T11:38:43.098Z,48.48
2023-07-24T11:41:11.075Z,48.84
2023-07-24T11:43:47.604Z,47.49
2023-07-24T11:46:24.922Z,47.93
2023-07-24T11:48:56.756Z,47.58
2023-07-24T11:51:25.533Z,46.71
2023-07-24T11:53:53.291Z,46.85
2023-07-24T11:56:23.008Z,47.00
2023-07-24T11:58:50.556Z,46.41
2023-07-24T12:01:18.104Z,47.06
2023-07-24T12:03:45.794Z,47.40
2023-07-24T12:06:17.951Z,46.52
2023-07-24T12:08:46.416Z,46.59
2023-07-24T12:11:20.605Z,46.66
2023-07-24T12:13:48.168Z,46.75
2023-07-24T12:16:15.775Z,47.32
2023-07-24T12:18:43.305Z,46.13
2023-07-24T12:21:10.826Z,46.33
2023-07-24T12:23:40.948Z,45.42
2023-07-24T12:26:08.606Z,45.05
2023-07-24T12:28:36.179Z,45.25
2023-07-24T12:31:04.672Z,45.48
2023-07-24T12:33:32.379Z,44.02
2023-07-24T12:35:59.941Z,43.95
2023-07-24T12:38:27.488Z,44.39
2023-07-24T12:40:56.372Z,43.08
2023-07-24T12:43:23.975Z,43.70
2023-07-24T12:45:51.606Z,43.76
2023-07-24T12:48:19.122Z,43.80
2023-07-24T12:50:46.681Z,44.00
2023-07-24T12:53:15.811Z,43.83
2023-07-24T12:55:49.267Z,43.65
2023-07-24T12:58:18.211Z,43.38
2023-07-24T13:00:45.825Z,44.35
2023-07-24T13:03:13.458Z,44.28
2023-07-24T13:05:41.337Z,44.56
2023-07-24T13:08:08.929Z,44.87
2023-07-24T13:10:36.504Z,45.17
2023-07-24T13:13:04.140Z,45.37
2023-07-24T13:15:33.297Z,45.47
2023-07-24T13:18:07.679Z,46.16
2023-07-24T13:20:45.555Z,46.29
2023-07-24T13:23:13.224Z,46.75
2023-07-24T13:25:40.761Z,46.87
2023-07-24T13:28:08.291Z,47.38
2023-07-24T13:30:37.169Z,47.52
2023-07-24T13:33:04.858Z,48.39
2023-07-24T13:35:32.428Z,48.36
2023-07-24T13:38:00.024Z,47.22
2023-07-24T13:40:27.523Z,47.44
2023-07-24T13:42:55.027Z,47.16
2023-07-24T13:45:22.538Z,48.40
2023-07-24T13:47:51.459Z,46.88
2023-07-24T13:50:19.134Z,47.36
2023-07-24T13:52:46.741Z,48.28
2023-07-24T13:55:15.117Z,49.24
2023-07-24T13:57:42.907Z,56.97
2023-07-24T14:00:11.393Z,63.79
2023-07-24T14:02:39.069Z,67.25
2023-07-24T14:05:09.916Z,69.31
2023-07-24T14:07:37.401Z,68.69
2023-07-24T14:10:05.334Z,66.77
2023-07-24T14:12:32.873Z,68.06
2023-07-24T14:15:00.448Z,68.82
2023-07-24T14:17:27.967Z,69.61
2023-07-24T14:19:55.545Z,68.86
2023-07-24T14:22:26.728Z,67.08
2023-07-24T14:24:55.981Z,66.60
2023-07-24T14:27:23.531Z,64.56
2023-07-24T14:29:51.087Z,63.75
2023-07-24T14:32:18.630Z,63.08
2023-07-24T14:34:46.135Z,62.83
2023-07-24T14:37:13.695Z,62.72
2023-07-24T14:39:42.962Z,61.83
2023-07-24T14:42:10.499Z,61.85
2023-07-24T14:44:38.065Z,61.48
2023-07-24T14:47:06.205Z,62.02
2023-07-24T14:49:33.725Z,61.45
2023-07-24T14:52:01.254Z,61.45
2023-07-24T14:54:28.768Z,59.09
2023-07-24T14:57:04.615Z,58.85
2023-07-24T14:59:38.174Z,59.34
2023-07-24T15:02:06.212Z,57.73
2023-07-24T15:04:33.744Z,58.03
2023-07-24T15:07:01.311Z,57.30
2023-07-24T15:09:28.872Z,57.90
2023-07-24T15:11:58.964Z,58.45
2023-07-24T15:14:27.024Z,57.98
2023-07-24T15:16:54.538Z,58.62
2023-07-24T15:19:22.054Z,58.68
2023-07-24T15:21:49.593Z,59.00
2023-07-24T15:24:18.934Z,58.40
2023-07-24T15:26:47.168Z,60.00
2023-07-24T15:29:19.405Z,64.35
2023-07-24T15:31:47.559Z,70.26
2023-07-24T15:34:15.131Z,79.44
2023-07-24T15:36:42.712Z,81.99
2023-07-24T15:39:10.231Z,82.79
2023-07-24T15:41:37.729Z,83.33
2023-07-24T15:44:05.539Z,83.61
2023-07-24T15:46:34.595Z,82.27
2023-07-24T15:49:02.289Z,83.35
2023-07-24T15:51:31.064Z,81.88
2023-07-24T15:53:59.478Z,83.32
2023-07-24T15:56:29.951Z,83.01
2023-07-24T15:58:57.482Z,85.09
2023-07-24T16:01:26.609Z,83.57
2023-07-24T16:03:58.384Z,85.52
2023-07-24T16:06:25.979Z,84.84
2023-07-24T16:08:53.634Z,85.05
2023-07-24T16:11:21.158Z,85.21
2023-07-24T16:13:48.683Z,87.31
2023-07-24T16:16:16.188Z,86.62
2023-07-24T16:18:43.862Z,84.81
2023-07-24T16:21:12.808Z,85.23
2023-07-24T16:23:40.374Z,87.09
2023-07-24T16:26:07.956Z,87.31
2023-07-24T16:28:35.524Z,84.13
2023-07-24T16:31:03.117Z,85.54
2023-07-24T16:33:31.337Z,83.25
2023-07-24T16:36:01.556Z,83.58
2023-07-24T16:38:30.480Z,82.15
2023-07-24T16:40:58.433Z,78.14
2023-07-24T16:43:25.974Z,78.41
2023-07-24T16:48:27.162Z,79.45
2023-07-24T16:50:55.045Z,80.40
2023-07-24T16:53:22.614Z,81.20
2023-07-24T16:55:51.946Z,81.02
2023-07-24T16:58:22.322Z,78.96
2023-07-24T17:00:50.050Z,79.76
2023-07-24T17:03:17.604Z,75.71
2023-07-24T17:05:45.187Z,72.94
2023-07-24T17:08:13.286Z,75.66
2023-07-24T17:10:45.011Z,72.62
2023-07-24T17:13:14.109Z,75.72
2023-07-24T17:15:41.990Z,71.26
2023-07-24T17:18:09.592Z,65.97
2023-07-24T17:20:39.089Z,65.95
2023-07-24T17:23:06.652Z,60.01
2023-07-24T17:25:34.326Z,58.93
2023-07-24T17:28:01.872Z,58.51
2023-07-24T17:30:30.896Z,59.47
2023-07-24T17:32:59.336Z,60.66
2023-07-24T17:35:27.000Z,63.43
2023-07-24T17:37:54.520Z,61.18
2023-07-24T17:40:22.390Z,62.94
2023-07-24T17:42:50.196Z,61.48
2023-07-24T17:45:18.963Z,62.05
2023-07-24T17:47:47.886Z,62.59
2023-07-24T17:50:15.430Z,60.27
2023-07-24T17:52:42.992Z,62.51
2023-07-24T17:55:10.564Z,60.73
2023-07-24T17:57:38.108Z,59.54
2023-07-24T18:00:07.139Z,59.05
2023-07-24T18:02:34.748Z,61.49
2023-07-24T18:05:03.720Z,59.78
2023-07-24T18:07:31.268Z,59.12
2023-07-24T18:09:58.775Z,58.58
2023-07-24T18:12:26.881Z,59.97
2023-07-24T18:14:54.531Z,57.85
2023-07-24T18:17:22.247Z,58.41
2023-07-24T18:19:49.811Z,59.55
2023-07-24T18:22:20.212Z,56.48
2023-07-24T18:24:47.878Z,57.32
2023-07-24T18:27:15.512Z,53.85
2023-07-24T18:29:43.127Z,54.55
2023-07-24T18:32:10.857Z,56.35
2023-07-24T18:34:38.409Z,55.65
2023-07-24T18:37:07.408Z,56.12
2023-07-24T18:39:36.398Z,56.76
2023-07-24T18:42:04.918Z,55.66
2023-07-24T18:44:33.964Z,56.26
2023-07-24T18:47:01.517Z,54.83
2023-07-24T18:49:29.083Z,55.27
2023-07-24T18:51:56.678Z,55.00
2023-07-24T18:54:24.352Z,55.27
2023-07-24T18:56:53.341Z,54.03
2023-07-24T18:59:20.921Z,53.86
2023-07-24T19:01:49.100Z,53.72
2023-07-24T19:04:16.679Z,53.87
2023-07-24T19:06:44.298Z,53.71
2023-07-24T19:09:11.857Z,54.50
2023-07-24T19:11:39.392Z,53.81
2023-07-24T19:14:08.290Z,53.82
2023-07-24T19:16:36.336Z,54.62
2023-07-24T19:19:06.527Z,54.80
2023-07-24T19:21:34.049Z,56.53
2023-07-24T19:24:01.612Z,57.77
2023-07-24T19:26:29.313Z,57.13
2023-07-24T19:28:56.984Z,57.75
2023-07-24T19:31:25.980Z,57.46
2023-07-24T19:33:53.547Z,57.60
2023-07-24T19:36:21.242Z,57.15
2023-07-24T19:38:48.748Z,56.38
2023-07-24T19:41:16.255Z,56.56
2023-07-24T19:43:43.824Z,57.78
2023-07-24T19:46:11.769Z,56.72
2023-07-24T19:48:40.905Z,56.47
2023-07-24T19:51:08.460Z,56.02
2023-07-24T19:53:36.186Z,56.31
2023-07-24T19:56:03.747Z,56.16
2023-07-24T19:58:34.156Z,55.91
2023-07-24T20:01:02.437Z,56.21
2023-07-24T20:03:30.286Z,56.73
2023-07-24T20:06:02.702Z,56.42
2023-07-24T20:08:33.566Z,58.50
2023-07-24T20:11:03.629Z,57.63
2023-07-24T20:13:31.228Z,58.22
2023-07-24T20:15:59.584Z,58.26
2023-07-24T20:18:27.231Z,57.74
2023-07-24T20:20:56.119Z,59.01
2023-07-24T20:23:25.120Z,60.48
2023-07-24T20:25:52.843Z,60.30
2023-07-24T20:28:21.686Z,60.17
2023-07-24T20:30:49.403Z,60.60
2023-07-24T20:33:17.467Z,60.17
2023-07-24T20:35:50.540Z,59.46
2023-07-24T20:38:27.698Z,59.53
2023-07-24T20:40:55.875Z,58.99
2023-07-24T20:43:23.596Z,58.46
2023-07-24T20:45:52.675Z,58.52
2023-07-24T20:48:21.327Z,58.72
2023-07-24T20:50:48.980Z,57.96
2023-07-24T20:53:16.688Z,58.96
2023-07-24T20:55:45.541Z,58.57
2023-07-24T20:58:13.043Z,59.65
2023-07-24T21:00:40.659Z,59.22
2023-07-24T21:03:08.324Z,59.02
2023-07-24T21:05:38.233Z,58.70
2023-07-24T21:08:06.143Z,58.55
2023-07-24T21:10:33.696Z,58.77
2023-07-24T21:13:02.652Z,58.89
2023-07-24T21:15:30.244Z,58.78
2023-07-24T21:17:57.810Z,59.68
2023-07-24T21:20:25.410Z,58.64
2023-07-24T21:22:52.997Z,59.16
2023-07-24T21:25:20.643Z,60.60
2023-07-24T21:27:48.163Z,58.91
2023-07-24T21:30:17.078Z,59.33
2023-07-24T21:32:44.632Z,59.72
2023-07-24T21:35:11.303Z,60.31
2023-07-24T21:37:40.098Z,60.28
2023-07-24T21:40:09.057Z,61.05
2023-07-24T21:42:36.809Z,61.23
2023-07-24T21:45:04.865Z,61.86
2023-07-24T21:47:33.729Z,62.41
2023-07-24T21:50:01.289Z,63.14
2023-07-24T21:52:28.890Z,63.91
2023-07-24T21:54:56.387Z,62.81
2023-07-24T21:57:23.960Z,64.30
2023-07-24T21:59:51.475Z,64.61
2023-07-24T22:02:19.048Z,64.92
2023-07-24T22:04:47.944Z,64.58
2023-07-24T22:07:15.460Z,65.02
2023-07-24T22:09:43.015Z,64.22
2023-07-24T22:12:10.707Z,65.51
2023-07-24T22:14:38.233Z,65.73
2023-07-24T22:17:06.812Z,66.14
2023-07-24T22:19:34.444Z,66.62
2023-07-24T22:22:03.853Z,66.90
2023-07-24T22:24:33.776Z,67.20
2023-07-24T22:27:01.303Z,67.90
2023-07-24T22:29:31.892Z,68.21
2023-07-24T22:32:02.899Z,67.73
2023-07-24T22:34:30.416Z,68.01
2023-07-24T22:36:57.939Z,68.56
2023-07-24T22:39:26.817Z,68.41
2023-07-24T22:41:54.352Z,69.23
2023-07-24T22:44:21.868Z,69.42
2023-07-24T22:46:49.697Z,69.73
2023-07-24T22:49:17.295Z,70.18
2023-07-24T22:51:44.877Z,69.42
2023-07-24T22:54:12.417Z,69.83
2023-07-24T22:56:43.077Z,69.65
2023-07-24T22:59:22.514Z,70.12
2023-07-24T23:01:51.550Z,70.49
2023-07-24T23:04:20.387Z,70.53
2023-07-24T23:06:47.904Z,70.10
2023-07-24T23:09:15.486Z,70.89
2023-07-24T23:11:44.379Z,71.36
2023-07-24T23:14:11.962Z,71.35
2023-07-24T23:16:39.466Z,71.60
2023-07-24T23:19:07.037Z,71.90
2023-07-24T23:21:34.791Z,71.91
2023-07-24T23:24:02.404Z,72.47
2023-07-24T23:26:29.938Z,72.48
2023-07-24T23:28:59.531Z,72.74
2023-07-24T23:31:27.189Z,72.93
2023-07-24T23:33:55.439Z,73.12
2023-07-24T23:36:32.142Z,72.65
2023-07-24T23:38:59.722Z,72.99
2023-07-24T23:41:27.800Z,73.33
2023-07-24T23:43:55.597Z,73.91
2023-07-24T23:46:24.737Z,74.16
2023-07-24T23:48:52.388Z,74.59
2023-07-24T23:51:21.160Z,74.45
2023-07-24T23:53:49.470Z,74.31
2023-07-24T23:56:19.091Z,74.92
2023-07-24T23:58:46.682Z,74.94
